sensor_id;sensor_type;location;lat;lon;timestamp;temperature;humidity
47791;DHT22;33547;49.044;1.156;2023-06-10T00:07:41;22.10;95.50
47791;DHT22;33547;49.044;1.156;2023-06-10T00:10:36;22.10;95.00
47791;DHT22;33547;49.044;1.156;2023-06-10T00:27:56;22.00;96.20
47791;DHT22;33547;49.044;1.156;2023-06-10T00:30:31;22.00;96.40
47791;DHT22;33547;49.044;1.156;2023-06-10T00:33:32;21.90;96.00
47791;DHT22;33547;49.044;1.156;2023-06-10T00:44:12;22.10;95.10
47791;DHT22;33547;49.044;1.156;2023-06-10T01:04:40;21.70;97.40
47791;DHT22;33547;49.044;1.156;2023-06-10T01:50:46;21.20;99.90
47791;DHT22;33547;49.044;1.156;2023-06-10T01:57:34;21.30;99.90
47791;DHT22;33547;49.044;1.156;2023-06-10T02:43:39;20.60;99.90
47791;DHT22;33547;49.044;1.156;2023-06-10T02:47:09;20.60;99.90
47791;DHT22;33547;49.044;1.156;2023-06-10T02:53:56;20.60;99.90
47791;DHT22;33547;49.044;1.156;2023-06-10T03:03:56;20.70;99.90
47791;DHT22;33547;49.044;1.156;2023-06-10T03:11:03;20.60;99.90
47791;DHT22;33547;49.044;1.156;2023-06-10T03:18:09;20.60;99.90
47791;DHT22;33547;49.044;1.156;2023-06-10T03:43:41;20.20;99.90
47791;DHT22;33547;49.044;1.156;2023-06-10T03:57:25;19.90;99.90
47791;DHT22;33547;49.044;1.156;2023-06-10T04:00:15;19.90;99.90
47791;DHT22;33547;49.044;1.156;2023-06-10T04:03:20;19.70;99.90
47791;DHT22;33547;49.044;1.156;2023-06-10T04:10:06;19.60;99.90
47791;DHT22;33547;49.044;1.156;2023-06-10T04:16:09;19.60;99.90
47791;DHT22;33547;49.044;1.156;2023-06-10T04:23:06;19.60;99.90
47791;DHT22;33547;49.044;1.156;2023-06-10T04:29:54;19.70;99.90
47791;DHT22;33547;49.044;1.156;2023-06-10T04:47:04;19.80;99.90
47791;DHT22;33547;49.044;1.156;2023-06-10T04:53:24;19.80;99.90
47791;DHT22;33547;49.044;1.156;2023-06-10T04:59:51;19.90;99.90
47791;DHT22;33547;49.044;1.156;2023-06-10T05:13:44;20.30;99.90
47791;DHT22;33547;49.044;1.156;2023-06-10T05:16:43;20.50;99.90
47791;DHT22;33547;49.044;1.156;2023-06-10T05:19:44;20.70;99.90
47791;DHT22;33547;49.044;1.156;2023-06-10T05:23:04;20.90;99.90
47791;DHT22;33547;49.044;1.156;2023-06-10T05:30:07;21.50;99.90
47791;DHT22;33547;49.044;1.156;2023-06-10T05:33:33;22.00;99.90
47791;DHT22;33547;49.044;1.156;2023-06-10T05:36:35;22.40;99.90
47791;DHT22;33547;49.044;1.156;2023-06-10T05:39:42;22.90;99.90
47791;DHT22;33547;49.044;1.156;2023-06-10T05:42:59;23.20;99.90
47791;DHT22;33547;49.044;1.156;2023-06-10T05:45:27;23.30;99.90
47791;DHT22;33547;49.044;1.156;2023-06-10T05:47:58;23.50;99.90
47791;DHT22;33547;49.044;1.156;2023-06-10T05:50:28;23.90;99.90
47791;DHT22;33547;49.044;1.156;2023-06-10T05:52:57;24.10;99.90
47791;DHT22;33547;49.044;1.156;2023-06-10T05:55:29;24.40;99.90
47791;DHT22;33547;49.044;1.156;2023-06-10T05:58:00;24.60;99.90
47791;DHT22;33547;49.044;1.156;2023-06-10T06:00:30;24.80;99.90
47791;DHT22;33547;49.044;1.156;2023-06-10T06:03:01;25.10;99.90
47791;DHT22;33547;49.044;1.156;2023-06-10T06:05:32;25.10;99.10
47791;DHT22;33547;49.044;1.156;2023-06-10T06:08:09;25.40;99.10
47791;DHT22;33547;49.044;1.156;2023-06-10T06:10:40;25.40;98.80
47791;DHT22;33547;49.044;1.156;2023-06-10T06:13:10;25.40;99.20
47791;DHT22;33547;49.044;1.156;2023-06-10T06:15:46;25.60;98.40
47791;DHT22;33547;49.044;1.156;2023-06-10T06:22:01;25.80;99.00
47791;DHT22;33547;49.044;1.156;2023-06-10T06:26:12;26.20;99.00
47791;DHT22;33547;49.044;1.156;2023-06-10T06:29:19;26.30;98.50
47791;DHT22;33547;49.044;1.156;2023-06-10T06:46:12;27.30;98.40
47791;DHT22;33547;49.044;1.156;2023-06-10T06:52:43;26.80;98.50
47791;DHT22;33547;49.044;1.156;2023-06-10T06:58:59;26.60;98.20
47791;DHT22;33547;49.044;1.156;2023-06-10T07:06:14;26.70;98.30
47791;DHT22;33547;49.044;1.156;2023-06-10T07:13:20;27.40;97.60
47791;DHT22;33547;49.044;1.156;2023-06-10T07:27:15;28.90;96.80
47791;DHT22;33547;49.044;1.156;2023-06-10T07:30:04;29.00;96.20
47791;DHT22;33547;49.044;1.156;2023-06-10T07:36:52;29.30;95.70
47791;DHT22;33547;49.044;1.156;2023-06-10T07:43:29;29.60;94.90
47791;DHT22;33547;49.044;1.156;2023-06-10T07:46:49;29.80;94.50
47791;DHT22;33547;49.044;1.156;2023-06-10T07:49:24;30.10;94.10
47791;DHT22;33547;49.044;1.156;2023-06-10T07:59:27;31.60;92.10
47791;DHT22;33547;49.044;1.156;2023-06-10T08:09:30;32.10;90.80
47791;DHT22;33547;49.044;1.156;2023-06-10T08:12:03;32.00;90.80
47791;DHT22;33547;49.044;1.156;2023-06-10T08:14:29;32.10;90.30
47791;DHT22;33547;49.044;1.156;2023-06-10T08:16:55;32.60;91.30
47791;DHT22;33547;49.044;1.156;2023-06-10T08:19:20;32.60;88.60
47791;DHT22;33547;49.044;1.156;2023-06-10T08:21:46;33.10;87.30
47791;DHT22;33547;49.044;1.156;2023-06-10T08:24:11;32.80;87.10
47791;DHT22;33547;49.044;1.156;2023-06-10T08:26:38;33.00;86.80
47791;DHT22;33547;49.044;1.156;2023-06-10T08:29:04;33.00;86.90
47791;DHT22;33547;49.044;1.156;2023-06-10T08:31:29;33.10;85.70
47791;DHT22;33547;49.044;1.156;2023-06-10T08:33:55;33.20;84.00
47791;DHT22;33547;49.044;1.156;2023-06-10T08:36:21;33.40;83.20
47791;DHT22;33547;49.044;1.156;2023-06-10T08:38:46;34.10;83.40
47791;DHT22;33547;49.044;1.156;2023-06-10T08:41:12;34.30;80.90
47791;DHT22;33547;49.044;1.156;2023-06-10T08:43:51;34.20;80.30
47791;DHT22;33547;49.044;1.156;2023-06-10T08:46:20;34.00;80.40
47791;DHT22;33547;49.044;1.156;2023-06-10T08:48:47;34.80;78.90
47791;DHT22;33547;49.044;1.156;2023-06-10T08:51:15;34.80;77.40
47791;DHT22;33547;49.044;1.156;2023-06-10T08:53:53;35.10;78.00
47791;DHT22;33547;49.044;1.156;2023-06-10T08:56:22;35.50;76.40
47791;DHT22;33547;49.044;1.156;2023-06-10T08:58:51;35.20;76.70
47791;DHT22;33547;49.044;1.156;2023-06-10T09:01:18;35.50;75.30
47791;DHT22;33547;49.044;1.156;2023-06-10T09:03:43;35.90;75.30
47791;DHT22;33547;49.044;1.156;2023-06-10T09:06:10;35.90;73.20
47791;DHT22;33547;49.044;1.156;2023-06-10T09:08:35;35.00;72.50
47791;DHT22;33547;49.044;1.156;2023-06-10T09:11:01;35.10;72.60
47791;DHT22;33547;49.044;1.156;2023-06-10T09:13:27;34.70;73.20
47791;DHT22;33547;49.044;1.156;2023-06-10T09:15:52;35.10;72.50
47791;DHT22;33547;49.044;1.156;2023-06-10T09:18:18;35.30;72.60
47791;DHT22;33547;49.044;1.156;2023-06-10T09:20:44;35.10;72.30
47791;DHT22;33547;49.044;1.156;2023-06-10T09:23:10;35.20;74.30
47791;DHT22;33547;49.044;1.156;2023-06-10T09:25:37;34.30;71.40
47791;DHT22;33547;49.044;1.156;2023-06-10T09:28:04;33.40;72.70
47791;DHT22;33547;49.044;1.156;2023-06-10T09:30:34;32.20;73.30
47791;DHT22;33547;49.044;1.156;2023-06-10T09:33:01;31.90;75.00
47791;DHT22;33547;49.044;1.156;2023-06-10T09:35:29;31.70;74.60
47791;DHT22;33547;49.044;1.156;2023-06-10T09:37:56;31.70;75.00
47791;DHT22;33547;49.044;1.156;2023-06-10T09:40:22;31.70;75.20
47791;DHT22;33547;49.044;1.156;2023-06-10T09:42:53;31.40;75.30
47791;DHT22;33547;49.044;1.156;2023-06-10T09:45:20;32.80;73.10
47791;DHT22;33547;49.044;1.156;2023-06-10T09:47:47;33.40;72.50
47791;DHT22;33547;49.044;1.156;2023-06-10T09:50:13;33.70;70.20
47791;DHT22;33547;49.044;1.156;2023-06-10T09:52:38;34.10;69.60
47791;DHT22;33547;49.044;1.156;2023-06-10T09:55:07;34.10;69.00
47791;DHT22;33547;49.044;1.156;2023-06-10T09:57:33;34.40;69.20
47791;DHT22;33547;49.044;1.156;2023-06-10T10:00:02;34.00;68.30
47791;DHT22;33547;49.044;1.156;2023-06-10T10:02:29;34.00;68.30
47791;DHT22;33547;49.044;1.156;2023-06-10T10:05:02;33.80;70.20
47791;DHT22;33547;49.044;1.156;2023-06-10T10:07:28;33.90;68.00
47791;DHT22;33547;49.044;1.156;2023-06-10T10:09:53;33.90;67.10
47791;DHT22;33547;49.044;1.156;2023-06-10T10:12:20;33.40;69.40
47791;DHT22;33547;49.044;1.156;2023-06-10T10:14:46;32.60;70.60
47791;DHT22;33547;49.044;1.156;2023-06-10T10:17:15;32.60;71.30
47791;DHT22;33547;49.044;1.156;2023-06-10T10:19:50;33.20;70.00
47791;DHT22;33547;49.044;1.156;2023-06-10T10:22:23;34.00;70.00
47791;DHT22;33547;49.044;1.156;2023-06-10T10:24:52;34.10;69.20
47791;DHT22;33547;49.044;1.156;2023-06-10T10:27:22;35.00;68.80
47791;DHT22;33547;49.044;1.156;2023-06-10T10:29:53;34.70;69.90
47791;DHT22;33547;49.044;1.156;2023-06-10T10:32:29;35.80;68.20
47791;DHT22;33547;49.044;1.156;2023-06-10T10:35:09;35.40;65.00
47791;DHT22;33547;49.044;1.156;2023-06-10T10:37:37;35.30;67.20
47791;DHT22;33547;49.044;1.156;2023-06-10T10:40:05;35.30;66.60
47791;DHT22;33547;49.044;1.156;2023-06-10T10:42:31;35.10;67.40
47791;DHT22;33547;49.044;1.156;2023-06-10T10:44:58;35.20;66.90
47791;DHT22;33547;49.044;1.156;2023-06-10T10:47:27;35.60;65.60
47791;DHT22;33547;49.044;1.156;2023-06-10T10:49:55;35.80;64.80
47791;DHT22;33547;49.044;1.156;2023-06-10T10:52:24;36.00;65.20
47791;DHT22;33547;49.044;1.156;2023-06-10T10:54:53;36.50;65.10
47791;DHT22;33547;49.044;1.156;2023-06-10T10:57:23;36.00;64.40
47791;DHT22;33547;49.044;1.156;2023-06-10T11:02:50;36.40;65.20
47791;DHT22;33547;49.044;1.156;2023-06-10T11:05:11;36.70;64.70
47791;DHT22;33547;49.044;1.156;2023-06-10T11:07:37;36.90;63.20
47791;DHT22;33547;49.044;1.156;2023-06-10T11:10:09;36.90;63.70
47791;DHT22;33547;49.044;1.156;2023-06-10T11:15:09;37.50;61.40
47791;DHT22;33547;49.044;1.156;2023-06-10T11:17:35;36.70;62.80
47791;DHT22;33547;49.044;1.156;2023-06-10T11:20:01;37.10;61.80
47791;DHT22;33547;49.044;1.156;2023-06-10T11:22:26;37.00;61.50
47791;DHT22;33547;49.044;1.156;2023-06-10T11:24:52;37.30;62.50
47791;DHT22;33547;49.044;1.156;2023-06-10T11:27:22;37.10;63.70
47791;DHT22;33547;49.044;1.156;2023-06-10T11:32:33;36.10;64.50
47791;DHT22;33547;49.044;1.156;2023-06-10T11:34:59;36.60;66.80
47791;DHT22;33547;49.044;1.156;2023-06-10T11:37:25;36.20;66.90
47791;DHT22;33547;49.044;1.156;2023-06-10T11:39:54;35.20;65.70
47791;DHT22;33547;49.044;1.156;2023-06-10T11:42:21;35.90;66.90
47791;DHT22;33547;49.044;1.156;2023-06-10T11:44:51;36.00;65.50
47791;DHT22;33547;49.044;1.156;2023-06-10T11:47:18;35.90;65.30
47791;DHT22;33547;49.044;1.156;2023-06-10T11:49:44;36.50;64.70
47791;DHT22;33547;49.044;1.156;2023-06-10T11:52:10;36.40;66.60
47791;DHT22;33547;49.044;1.156;2023-06-10T11:54:37;36.50;64.70
47791;DHT22;33547;49.044;1.156;2023-06-10T11:57:03;36.40;63.80
47791;DHT22;33547;49.044;1.156;2023-06-10T11:59:30;35.40;65.00
47791;DHT22;33547;49.044;1.156;2023-06-10T12:01:56;34.50;66.60
47791;DHT22;33547;49.044;1.156;2023-06-10T12:04:22;33.80;68.00
47791;DHT22;33547;49.044;1.156;2023-06-10T12:06:52;33.40;70.10
47791;DHT22;33547;49.044;1.156;2023-06-10T12:09:31;32.60;70.10
47791;DHT22;33547;49.044;1.156;2023-06-10T12:12:06;32.70;71.10
47791;DHT22;33547;49.044;1.156;2023-06-10T12:17:19;33.20;68.30
47791;DHT22;33547;49.044;1.156;2023-06-10T12:19:49;33.50;68.50
47791;DHT22;33547;49.044;1.156;2023-06-10T12:22:14;33.70;67.80
47791;DHT22;33547;49.044;1.156;2023-06-10T12:25:02;33.80;66.90
47791;DHT22;33547;49.044;1.156;2023-06-10T12:27:32;33.80;67.40
47791;DHT22;33547;49.044;1.156;2023-06-10T12:30:05;33.90;67.30
47791;DHT22;33547;49.044;1.156;2023-06-10T12:32:40;33.50;67.10
47791;DHT22;33547;49.044;1.156;2023-06-10T12:35:08;32.90;66.00
47791;DHT22;33547;49.044;1.156;2023-06-10T12:37:37;32.80;66.80
47791;DHT22;33547;49.044;1.156;2023-06-10T12:40:11;32.20;66.60
47791;DHT22;33547;49.044;1.156;2023-06-10T12:42:38;31.80;68.40
47791;DHT22;33547;49.044;1.156;2023-06-10T12:45:04;31.50;69.00
47791;DHT22;33547;49.044;1.156;2023-06-10T12:47:36;31.60;68.60
47791;DHT22;33547;49.044;1.156;2023-06-10T12:50:07;32.00;68.70
47791;DHT22;33547;49.044;1.156;2023-06-10T12:52:33;32.20;68.00
47791;DHT22;33547;49.044;1.156;2023-06-10T12:54:58;32.60;67.90
47791;DHT22;33547;49.044;1.156;2023-06-10T12:57:25;32.90;69.60
47791;DHT22;33547;49.044;1.156;2023-06-10T12:59:51;33.20;68.10
47791;DHT22;33547;49.044;1.156;2023-06-10T13:02:28;33.00;68.40
47791;DHT22;33547;49.044;1.156;2023-06-10T13:04:53;32.80;67.80
47791;DHT22;33547;49.044;1.156;2023-06-10T13:07:21;32.30;68.70
47791;DHT22;33547;49.044;1.156;2023-06-10T13:09:48;32.40;69.10
47791;DHT22;33547;49.044;1.156;2023-06-10T13:12:16;32.30;69.40
47791;DHT22;33547;49.044;1.156;2023-06-10T13:14:45;32.40;68.90
47791;DHT22;33547;49.044;1.156;2023-06-10T13:17:11;32.70;67.80
47791;DHT22;33547;49.044;1.156;2023-06-10T13:19:37;32.60;67.70
47791;DHT22;33547;49.044;1.156;2023-06-10T13:22:03;32.00;68.40
47791;DHT22;33547;49.044;1.156;2023-06-10T13:24:28;31.60;68.10
47791;DHT22;33547;49.044;1.156;2023-06-10T13:26:57;31.90;68.80
47791;DHT22;33547;49.044;1.156;2023-06-10T13:29:23;31.70;68.80
47791;DHT22;33547;49.044;1.156;2023-06-10T13:31:48;32.00;68.70
47791;DHT22;33547;49.044;1.156;2023-06-10T13:34:14;31.90;69.20
47791;DHT22;33547;49.044;1.156;2023-06-10T13:36:40;31.80;69.30
47791;DHT22;33547;49.044;1.156;2023-06-10T13:39:05;31.30;68.60
47791;DHT22;33547;49.044;1.156;2023-06-10T13:41:31;31.20;69.70
47791;DHT22;33547;49.044;1.156;2023-06-10T13:43:59;31.00;70.20
47791;DHT22;33547;49.044;1.156;2023-06-10T13:46:25;30.70;70.80
47791;DHT22;33547;49.044;1.156;2023-06-10T13:48:51;30.60;71.00
47791;DHT22;33547;49.044;1.156;2023-06-10T13:51:17;30.90;69.60
47791;DHT22;33547;49.044;1.156;2023-06-10T13:53:43;31.10;69.30
47791;DHT22;33547;49.044;1.156;2023-06-10T13:56:11;31.40;69.90
47791;DHT22;33547;49.044;1.156;2023-06-10T13:58:38;31.50;69.60
47791;DHT22;33547;49.044;1.156;2023-06-10T14:01:09;31.20;69.60
47791;DHT22;33547;49.044;1.156;2023-06-10T14:03:37;31.20;71.10
47791;DHT22;33547;49.044;1.156;2023-06-10T14:06:03;31.20;69.90
47791;DHT22;33547;49.044;1.156;2023-06-10T14:08:29;31.40;70.20
47791;DHT22;33547;49.044;1.156;2023-06-10T14:10:57;31.50;69.30
47791;DHT22;33547;49.044;1.156;2023-06-10T14:13:25;31.50;70.10
47791;DHT22;33547;49.044;1.156;2023-06-10T14:15:56;31.80;69.20
47791;DHT22;33547;49.044;1.156;2023-06-10T14:18:33;31.60;69.10
47791;DHT22;33547;49.044;1.156;2023-06-10T14:20:59;31.40;69.30
47791;DHT22;33547;49.044;1.156;2023-06-10T14:23:27;31.50;67.80
47791;DHT22;33547;49.044;1.156;2023-06-10T14:39:32;31.20;68.60
47791;DHT22;33547;49.044;1.156;2023-06-10T14:42:12;31.20;73.10
47791;DHT22;33547;49.044;1.156;2023-06-10T14:45:01;31.10;74.00
47791;DHT22;33547;49.044;1.156;2023-06-10T14:47:27;30.80;75.50
47791;DHT22;33547;49.044;1.156;2023-06-10T14:50:31;30.60;77.20
47791;DHT22;33547;49.044;1.156;2023-06-10T14:53:23;30.30;77.20
47791;DHT22;33547;49.044;1.156;2023-06-10T14:56:13;30.10;78.70
47791;DHT22;33547;49.044;1.156;2023-06-10T14:58:43;29.90;80.00
47791;DHT22;33547;49.044;1.156;2023-06-10T15:01:13;29.90;80.70
47791;DHT22;33547;49.044;1.156;2023-06-10T15:03:40;29.80;80.80
47791;DHT22;33547;49.044;1.156;2023-06-10T15:06:05;29.70;80.60
47791;DHT22;33547;49.044;1.156;2023-06-10T15:08:31;29.70;81.80
47791;DHT22;33547;49.044;1.156;2023-06-10T15:10:57;29.50;81.80
47791;DHT22;33547;49.044;1.156;2023-06-10T15:13:23;29.20;82.60
47791;DHT22;33547;49.044;1.156;2023-06-10T15:15:48;29.20;83.10
47791;DHT22;33547;49.044;1.156;2023-06-10T15:18:14;29.20;83.70
47791;DHT22;33547;49.044;1.156;2023-06-10T15:20:40;29.20;84.00
47791;DHT22;33547;49.044;1.156;2023-06-10T15:23:05;29.10;84.20
47791;DHT22;33547;49.044;1.156;2023-06-10T15:25:33;28.90;85.10
47791;DHT22;33547;49.044;1.156;2023-06-10T15:27:59;29.00;86.00
47791;DHT22;33547;49.044;1.156;2023-06-10T15:30:25;28.90;85.10
47791;DHT22;33547;49.044;1.156;2023-06-10T15:32:50;28.90;85.40
47791;DHT22;33547;49.044;1.156;2023-06-10T15:35:16;29.10;85.20
47791;DHT22;33547;49.044;1.156;2023-06-10T15:37:42;29.00;84.90
47791;DHT22;33547;49.044;1.156;2023-06-10T15:40:08;29.00;85.00
47791;DHT22;33547;49.044;1.156;2023-06-10T15:42:34;28.90;85.40
47791;DHT22;33547;49.044;1.156;2023-06-10T15:45:00;28.80;86.10
47791;DHT22;33547;49.044;1.156;2023-06-10T15:47:26;28.90;85.90
47791;DHT22;33547;49.044;1.156;2023-06-10T15:49:54;28.90;86.00
47791;DHT22;33547;49.044;1.156;2023-06-10T15:52:20;28.80;86.60
47791;DHT22;33547;49.044;1.156;2023-06-10T15:54:48;28.60;86.90
47791;DHT22;33547;49.044;1.156;2023-06-10T15:57:14;28.70;87.20
47791;DHT22;33547;49.044;1.156;2023-06-10T15:59:40;28.40;87.90
47791;DHT22;33547;49.044;1.156;2023-06-10T16:02:06;28.60;88.90
47791;DHT22;33547;49.044;1.156;2023-06-10T16:04:31;28.60;88.40
47791;DHT22;33547;49.044;1.156;2023-06-10T16:06:57;28.60;88.50
47791;DHT22;33547;49.044;1.156;2023-06-10T16:09:23;28.60;88.90
47791;DHT22;33547;49.044;1.156;2023-06-10T16:11:49;28.50;89.30
47791;DHT22;33547;49.044;1.156;2023-06-10T16:14:15;28.60;88.90
47791;DHT22;33547;49.044;1.156;2023-06-10T16:16:41;28.60;89.00
47791;DHT22;33547;49.044;1.156;2023-06-10T16:19:06;28.60;89.40
47791;DHT22;33547;49.044;1.156;2023-06-10T16:21:32;28.60;89.90
47791;DHT22;33547;49.044;1.156;2023-06-10T16:23:58;28.70;85.70
47791;DHT22;33547;49.044;1.156;2023-06-10T16:26:24;28.60;85.70
47791;DHT22;33547;49.044;1.156;2023-06-10T16:28:51;28.60;85.70
47791;DHT22;33547;49.044;1.156;2023-06-10T16:31:17;28.40;85.60
47791;DHT22;33547;49.044;1.156;2023-06-10T16:33:42;28.30;87.20
47791;DHT22;33547;49.044;1.156;2023-06-10T16:36:08;28.30;86.60
47791;DHT22;33547;49.044;1.156;2023-06-10T16:38:34;28.30;88.00
47791;DHT22;33547;49.044;1.156;2023-06-10T16:40:59;28.40;87.90
47791;DHT22;33547;49.044;1.156;2023-06-10T16:43:25;28.30;87.70
47791;DHT22;33547;49.044;1.156;2023-06-10T16:45:52;28.30;87.40
47791;DHT22;33547;49.044;1.156;2023-06-10T16:48:18;28.10;86.80
47791;DHT22;33547;49.044;1.156;2023-06-10T16:50:44;28.00;87.90
47791;DHT22;33547;49.044;1.156;2023-06-10T16:53:10;27.90;88.50
47791;DHT22;33547;49.044;1.156;2023-06-10T16:55:35;27.80;89.70
47791;DHT22;33547;49.044;1.156;2023-06-10T16:58:04;27.60;89.00
47791;DHT22;33547;49.044;1.156;2023-06-10T17:00:30;27.70;90.00
47791;DHT22;33547;49.044;1.156;2023-06-10T17:02:56;27.70;89.90
47791;DHT22;33547;49.044;1.156;2023-06-10T17:05:21;27.70;90.00
47791;DHT22;33547;49.044;1.156;2023-06-10T17:07:47;27.80;90.30
47791;DHT22;33547;49.044;1.156;2023-06-10T17:10:13;27.70;90.00
47791;DHT22;33547;49.044;1.156;2023-06-10T17:12:39;27.70;90.30
47791;DHT22;33547;49.044;1.156;2023-06-10T17:15:05;27.60;90.00
47791;DHT22;33547;49.044;1.156;2023-06-10T17:17:31;27.60;90.00
47791;DHT22;33547;49.044;1.156;2023-06-10T17:19:56;27.50;90.20
47791;DHT22;33547;49.044;1.156;2023-06-10T17:22:22;27.60;90.10
47791;DHT22;33547;49.044;1.156;2023-06-10T17:24:47;27.60;90.70
47791;DHT22;33547;49.044;1.156;2023-06-10T17:27:13;27.50;91.50
47791;DHT22;33547;49.044;1.156;2023-06-10T17:29:39;27.40;92.10
47791;DHT22;33547;49.044;1.156;2023-06-10T17:32:05;27.40;92.30
47791;DHT22;33547;49.044;1.156;2023-06-10T17:34:31;27.20;92.20
47791;DHT22;33547;49.044;1.156;2023-06-10T17:36:57;27.10;92.20
47791;DHT22;33547;49.044;1.156;2023-06-10T17:39:23;27.00;92.10
47791;DHT22;33547;49.044;1.156;2023-06-10T17:41:49;26.90;92.70
47791;DHT22;33547;49.044;1.156;2023-06-10T17:44:15;26.80;92.30
47791;DHT22;33547;49.044;1.156;2023-06-10T17:46:46;26.80;92.60
47791;DHT22;33547;49.044;1.156;2023-06-10T17:49:12;26.80;92.70
47791;DHT22;33547;49.044;1.156;2023-06-10T17:51:38;26.60;92.90
47791;DHT22;33547;49.044;1.156;2023-06-10T17:54:04;26.50;92.60
47791;DHT22;33547;49.044;1.156;2023-06-10T17:56:32;26.60;93.10
47791;DHT22;33547;49.044;1.156;2023-06-10T17:58:58;26.60;93.10
47791;DHT22;33547;49.044;1.156;2023-06-10T18:01:23;26.50;93.40
47791;DHT22;33547;49.044;1.156;2023-06-10T18:03:49;26.40;93.30
47791;DHT22;33547;49.044;1.156;2023-06-10T18:06:15;26.50;93.80
47791;DHT22;33547;49.044;1.156;2023-06-10T18:08:40;26.40;93.90
47791;DHT22;33547;49.044;1.156;2023-06-10T18:11:06;26.40;93.80
47791;DHT22;33547;49.044;1.156;2023-06-10T18:13:32;26.50;94.00
47791;DHT22;33547;49.044;1.156;2023-06-10T18:15:58;26.50;94.40
47791;DHT22;33547;49.044;1.156;2023-06-10T18:18:27;26.50;94.30
47791;DHT22;33547;49.044;1.156;2023-06-10T18:20:53;26.40;94.40
47791;DHT22;33547;49.044;1.156;2023-06-10T18:23:19;26.40;94.70
47791;DHT22;33547;49.044;1.156;2023-06-10T18:25:45;26.40;94.50
47791;DHT22;33547;49.044;1.156;2023-06-10T18:28:10;26.30;94.50
47791;DHT22;33547;49.044;1.156;2023-06-10T18:30:36;26.20;94.50
47791;DHT22;33547;49.044;1.156;2023-06-10T18:33:02;26.20;95.10
47791;DHT22;33547;49.044;1.156;2023-06-10T18:35:28;26.10;95.30
47791;DHT22;33547;49.044;1.156;2023-06-10T18:37:53;26.00;95.50
47791;DHT22;33547;49.044;1.156;2023-06-10T18:40:19;26.00;96.50
47791;DHT22;33547;49.044;1.156;2023-06-10T18:42:45;26.00;96.00
47791;DHT22;33547;49.044;1.156;2023-06-10T18:45:11;25.90;96.40
47791;DHT22;33547;49.044;1.156;2023-06-10T18:47:37;25.90;97.60
47791;DHT22;33547;49.044;1.156;2023-06-10T18:50:03;25.80;96.80
47791;DHT22;33547;49.044;1.156;2023-06-10T18:52:29;25.80;96.90
47791;DHT22;33547;49.044;1.156;2023-06-10T18:54:54;25.60;95.60
47791;DHT22;33547;49.044;1.156;2023-06-10T18:57:20;25.30;94.80
47791;DHT22;33547;49.044;1.156;2023-06-10T18:59:46;25.20;94.20
47791;DHT22;33547;49.044;1.156;2023-06-10T19:02:11;25.20;94.20
47791;DHT22;33547;49.044;1.156;2023-06-10T19:04:37;25.10;94.60
47791;DHT22;33547;49.044;1.156;2023-06-10T19:07:03;24.90;94.90
47791;DHT22;33547;49.044;1.156;2023-06-10T19:09:31;24.80;95.40
47791;DHT22;33547;49.044;1.156;2023-06-10T19:11:57;24.90;95.60
47791;DHT22;33547;49.044;1.156;2023-06-10T19:14:22;24.80;96.10
47791;DHT22;33547;49.044;1.156;2023-06-10T19:16:48;24.70;96.00
47791;DHT22;33547;49.044;1.156;2023-06-10T19:19:14;24.70;95.90
47791;DHT22;33547;49.044;1.156;2023-06-10T19:21:39;24.50;94.90
47791;DHT22;33547;49.044;1.156;2023-06-10T19:24:05;24.10;96.00
47791;DHT22;33547;49.044;1.156;2023-06-10T19:26:31;23.70;96.70
47791;DHT22;33547;49.044;1.156;2023-06-10T19:28:56;23.50;97.10
47791;DHT22;33547;49.044;1.156;2023-06-10T19:31:23;23.50;97.60
47791;DHT22;33547;49.044;1.156;2023-06-10T19:33:49;23.60;97.40
47791;DHT22;33547;49.044;1.156;2023-06-10T19:36:15;23.60;97.40
47791;DHT22;33547;49.044;1.156;2023-06-10T19:38:41;23.60;98.70
47791;DHT22;33547;49.044;1.156;2023-06-10T19:41:07;23.30;98.30
47791;DHT22;33547;49.044;1.156;2023-06-10T19:43:33;23.20;99.10
47791;DHT22;33547;49.044;1.156;2023-06-10T19:45:59;23.10;99.90
47791;DHT22;33547;49.044;1.156;2023-06-10T19:48:44;23.00;99.90
47791;DHT22;33547;49.044;1.156;2023-06-10T19:51:18;22.60;99.90
47791;DHT22;33547;49.044;1.156;2023-06-10T19:53:46;22.30;99.90
47791;DHT22;33547;49.044;1.156;2023-06-10T19:56:12;21.70;99.90
47791;DHT22;33547;49.044;1.156;2023-06-10T19:58:47;21.40;99.90
47791;DHT22;33547;49.044;1.156;2023-06-10T20:01:13;21.10;99.90
47791;DHT22;33547;49.044;1.156;2023-06-10T20:03:38;20.80;99.90
47791;DHT22;33547;49.044;1.156;2023-06-10T20:06:04;20.60;99.90
47791;DHT22;33547;49.044;1.156;2023-06-10T20:08:31;20.60;99.90
47791;DHT22;33547;49.044;1.156;2023-06-10T20:10:57;20.50;99.90
47791;DHT22;33547;49.044;1.156;2023-06-10T20:13:23;20.40;99.90
47791;DHT22;33547;49.044;1.156;2023-06-10T20:15:48;20.30;99.90
47791;DHT22;33547;49.044;1.156;2023-06-10T20:18:14;20.20;99.90
47791;DHT22;33547;49.044;1.156;2023-06-10T20:20:40;20.30;99.90
47791;DHT22;33547;49.044;1.156;2023-06-10T20:23:05;20.10;99.90
47791;DHT22;33547;49.044;1.156;2023-06-10T20:25:31;20.20;99.90
47791;DHT22;33547;49.044;1.156;2023-06-10T20:28:00;20.20;99.90
47791;DHT22;33547;49.044;1.156;2023-06-10T20:30:25;20.10;99.90
47791;DHT22;33547;49.044;1.156;2023-06-10T20:32:51;20.10;99.90
47791;DHT22;33547;49.044;1.156;2023-06-10T20:35:18;20.00;99.90
47791;DHT22;33547;49.044;1.156;2023-06-10T20:37:45;20.10;99.90
47791;DHT22;33547;49.044;1.156;2023-06-10T20:40:12;20.20;99.90
47791;DHT22;33547;49.044;1.156;2023-06-10T20:42:39;20.20;99.90
47791;DHT22;33547;49.044;1.156;2023-06-10T20:45:06;20.10;99.90
47791;DHT22;33547;49.044;1.156;2023-06-10T20:47:32;19.90;99.90
47791;DHT22;33547;49.044;1.156;2023-06-10T20:49:58;19.90;99.90
47791;DHT22;33547;49.044;1.156;2023-06-10T20:52:23;20.00;99.90
47791;DHT22;33547;49.044;1.156;2023-06-10T20:54:49;20.00;99.90
47791;DHT22;33547;49.044;1.156;2023-06-10T20:57:15;20.00;99.90
47791;DHT22;33547;49.044;1.156;2023-06-10T20:59:40;20.00;99.90
47791;DHT22;33547;49.044;1.156;2023-06-10T21:02:06;19.80;99.90
47791;DHT22;33547;49.044;1.156;2023-06-10T21:04:32;20.00;99.90
47791;DHT22;33547;49.044;1.156;2023-06-10T21:06:58;20.00;99.90
47791;DHT22;33547;49.044;1.156;2023-06-10T21:09:24;19.90;99.90
47791;DHT22;33547;49.044;1.156;2023-06-10T21:11:49;20.00;99.90
47791;DHT22;33547;49.044;1.156;2023-06-10T21:14:15;20.00;99.90
47791;DHT22;33547;49.044;1.156;2023-06-10T21:16:41;20.00;99.90
47791;DHT22;33547;49.044;1.156;2023-06-10T21:19:48;20.00;99.90
47791;DHT22;33547;49.044;1.156;2023-06-10T21:22:52;20.00;99.90
47791;DHT22;33547;49.044;1.156;2023-06-10T21:26:04;20.00;99.90
47791;DHT22;33547;49.044;1.156;2023-06-10T21:29:02;20.00;99.90
47791;DHT22;33547;49.044;1.156;2023-06-10T21:37:59;20.00;99.90